Time;durP1;ratioP1;P1;durP2;ratioP2;P2;SDS_P1;SDS_P2;PMS_P1;PMS_P2;Temp;Humidity;BMP_temperature;BMP_pressure;BME280_temperature;BME280_humidity;BME280_pressure;Samples;Min_cycle;Max_cycle;Signal;HPM_P1;HPM_P2
2023/07/20 00:00:17;;;;;;;13.20;3.50;;;;;;;19.72;54.33;98886.08;79522;1299;3013133;-64
2023/07/20 00:02:44;;;;;;;18.50;3.80;;;;;;;19.70;54.40;98881.69;79570;1295;3011877;-68
2023/07/20 00:05:14;;;;;;;15.10;3.70;;;;;;;19.72;54.32;98890.68;78257;1301;3052502;-65
2023/07/20 00:07:41;;;;;;;12.00;3.50;;;;;;;19.67;54.68;98888.17;79531;1300;3013668;-65
2023/07/20 00:10:08;;;;;;;11.90;3.90;;;;;;;19.63;54.96;98891.89;79642;1300;3012794;-66
2023/07/20 00:12:37;;;;;;;9.90;3.30;;;;;;;19.64;54.67;98885.52;78315;1301;3055993;-65
2023/07/20 00:15:04;;;;;;;10.60;3.30;;;;;;;19.69;54.20;98889.21;79611;1298;3019270;-68
2023/07/20 00:17:32;;;;;;;14.00;3.50;;;;;;;19.68;53.81;98890.55;79533;1297;3012923;-63
2023/07/20 00:19:59;;;;;;;18.10;3.70;;;;;;;19.63;53.60;98895.19;78045;1300;3051311;-63
2023/07/20 00:22:26;;;;;;;14.20;3.30;;;;;;;19.68;53.07;98895.09;79535;1301;3012815;-64
2023/07/20 00:24:53;;;;;;;19.60;3.70;;;;;;;19.67;52.93;98891.61;79446;1300;3011747;-64
2023/07/20 00:27:22;;;;;;;12.70;3.00;;;;;;;19.65;52.82;98892.68;78076;1301;3028532;-64
2023/07/20 00:29:51;;;;;;;15.60;3.80;;;;;;;19.65;52.55;98894.02;79304;1298;3013771;-65
2023/07/20 00:32:20;;;;;;;11.10;2.80;;;;;;;19.64;52.64;98892.41;78694;1295;3013867;-63
2023/07/20 00:34:46;;;;;;;9.30;3.40;;;;;;;19.66;52.39;98894.72;79398;1301;3014033;-61
2023/07/20 00:37:14;;;;;;;10.30;3.20;;;;;;;19.65;52.33;98895.25;79455;1301;3011572;-61
2023/07/20 00:39:43;;;;;;;12.60;2.70;;;;;;;19.67;52.38;98891.28;78130;1300;3068614;-63
2023/07/20 00:42:09;;;;;;;19.80;2.90;;;;;;;19.67;52.18;98887.12;79393;1295;3013158;-62
2023/07/20 00:44:37;;;;;;;13.50;3.20;;;;;;;19.69;52.21;98877.93;79209;1301;3011605;-66
2023/07/20 00:47:05;;;;;;;14.70;3.60;;;;;;;19.62;52.32;98868.11;78267;1296;3054006;-66
2023/07/20 00:49:33;;;;;;;12.70;2.80;;;;;;;19.68;52.01;98866.10;79544;1295;3011850;-62
2023/07/20 00:52:00;;;;;;;11.10;3.70;;;;;;;19.70;52.18;98866.27;79559;1304;3011829;-66
2023/07/20 00:54:29;;;;;;;12.90;3.30;;;;;;;19.68;52.25;98863.41;78285;1298;3068248;-65
2023/07/20 00:56:56;;;;;;;17.10;3.70;;;;;;;19.68;52.07;98865.08;79420;1297;3014711;-65
2023/07/20 00:59:23;;;;;;;13.10;4.00;;;;;;;19.66;52.49;98856.55;79243;1298;3011860;-65
2023/07/20 01:01:51;;;;;;;11.90;2.90;;;;;;;19.64;52.41;98857.14;78114;1301;3054316;-62
2023/07/20 01:04:18;;;;;;;10.00;2.90;;;;;;;19.60;52.53;98854.55;79328;1300;3018281;-66
2023/07/20 01:06:54;;;;;;;11.70;3.10;;;;;;;19.57;52.68;98851.08;79494;1301;3011640;-64
2023/07/20 01:09:40;;;;;;;8.30;2.70;;;;;;;19.51;52.94;98855.17;78089;1301;3069623;-66
2023/07/20 01:12:12;;;;;;;7.70;3.00;;;;;;;19.47;53.27;98856.27;78079;1301;3052581;-65
2023/07/20 01:14:40;;;;;;;9.60;3.10;;;;;;;19.43;52.85;98858.77;79222;1297;3011578;-63
2023/07/20 01:17:08;;;;;;;15.40;3.00;;;;;;;19.43;52.93;98859.47;78043;1299;3049069;-64
2023/07/20 01:19:35;;;;;;;7.90;2.90;;;;;;;19.40;52.91;98864.77;79517;1296;3018716;-67
2023/07/20 01:22:03;;;;;;;9.50;2.80;;;;;;;19.45;52.31;98868.02;79289;1297;3011658;-66
2023/07/20 01:24:37;;;;;;;14.00;3.50;;;;;;;19.44;52.92;98871.55;78223;1301;3053010;-65
2023/07/20 01:27:14;;;;;;;9.50;3.00;;;;;;;19.40;52.72;98864.29;79396;1300;3012046;-62
2023/07/20 01:30:08;;;;;;;14.50;3.00;;;;;;;19.36;53.12;98857.98;78224;1301;3051854;-65
2023/07/20 01:32:36;;;;;;;13.90;2.80;;;;;;;19.38;53.29;98855.27;78158;1300;3056943;-67
2023/07/20 01:35:03;;;;;;;11.50;3.20;;;;;;;19.37;52.98;98854.63;79366;1296;3015941;-62
2023/07/20 01:37:30;;;;;;;10.20;3.00;;;;;;;19.38;52.84;98862.33;79197;1298;3013290;-62
2023/07/20 01:39:57;;;;;;;7.30;2.90;;;;;;;19.36;52.56;98863.48;78113;1299;3028468;-65
2023/07/20 01:42:24;;;;;;;6.60;2.70;;;;;;;19.37;52.33;98863.88;79128;1303;3013131;-62
2023/07/20 01:44:52;;;;;;;14.30;3.30;;;;;;;19.45;52.14;98873.71;79298;1300;3011619;-64
2023/07/20 01:47:20;;;;;;;9.80;3.00;;;;;;;19.43;52.39;98874.98;78061;1299;3056380;-68
2023/07/20 01:49:46;;;;;;;11.00;3.30;;;;;;;19.42;52.37;98871.83;79240;1298;3013599;-64
2023/07/20 01:52:13;;;;;;;10.70;3.30;;;;;;;19.43;52.16;98872.98;79358;1295;3011645;-65
2023/07/20 01:54:41;;;;;;;12.00;2.50;;;;;;;19.41;52.28;98875.70;78158;1300;3029660;-67
2023/07/20 01:57:08;;;;;;;14.60;3.30;;;;;;;19.44;52.22;98875.69;79427;1301;3018977;-66
2023/07/20 01:59:34;;;;;;;11.40;3.00;;;;;;;19.44;52.17;98873.07;79234;1300;3013391;-65
2023/07/20 02:02:03;;;;;;;19.70;3.30;;;;;;;19.41;52.49;98869.12;78017;1295;3027127;-63
2023/07/20 02:04:29;;;;;;;8.30;2.60;;;;;;;19.41;52.30;98867.15;79354;1295;3013790;-64
2023/07/20 02:06:56;;;;;;;10.90;3.00;;;;;;;19.45;52.01;98866.95;79250;1295;3011633;-62
2023/07/20 02:09:25;;;;;;;14.10;2.70;;;;;;;19.43;52.32;98873.48;78237;1301;3052722;-65
2023/07/20 02:11:52;;;;;;;11.60;3.20;;;;;;;19.42;52.60;98871.55;79502;1295;3013713;-63
2023/07/20 02:14:22;;;;;;;10.20;2.50;;;;;;;19.46;52.36;98873.95;79334;1295;3011884;-63
2023/07/20 02:16:57;;;;;;;5.20;2.20;;;;;;;19.49;52.26;98878.94;78265;1295;3055897;-65
2023/07/20 02:19:29;;;;;;;9.40;2.80;;;;;;;19.55;52.11;98885.22;78224;1295;3049034;-65
2023/07/20 02:21:56;;;;;;;4.20;2.20;;;;;;;19.58;51.95;98887.94;79379;1295;3011806;-65
2023/07/20 02:24:23;;;;;;;8.10;2.10;;;;;;;19.58;51.84;98886.51;79441;1298;3013820;-64
2023/07/20 02:26:51;;;;;;;7.70;2.10;;;;;;;19.61;51.71;98883.31;78174;1300;3052817;-67
2023/07/20 02:29:18;;;;;;;12.20;3.10;;;;;;;19.64;51.89;98882.55;79632;1295;3013123;-64
2023/07/20 02:31:44;;;;;;;8.80;3.20;;;;;;;19.57;52.14;98878.95;79430;1301;3011875;-67
2023/07/20 02:34:13;;;;;;;8.70;2.50;;;;;;;19.63;51.90;98874.64;78225;1301;3028742;-65
2023/07/20 02:36:42;;;;;;;11.40;2.80;;;;;;;19.66;52.04;98872.60;79345;1297;3013377;-66
2023/07/20 02:39:11;;;;;;;12.40;2.40;;;;;;;19.65;51.99;98873.90;78705;1300;3011661;-65
2023/07/20 02:41:38;;;;;;;6.90;2.40;;;;;;;19.66;52.06;98875.02;79454;1301;3013401;-66
2023/07/20 02:44:04;;;;;;;7.80;2.30;;;;;;;19.70;51.97;98875.65;79314;1295;3011692;-63
2023/07/20 02:46:34;;;;;;;8.50;2.10;;;;;;;19.71;52.36;98873.20;78093;1301;3051075;-63
2023/07/20 02:49:01;;;;;;;8.50;2.60;;;;;;;19.73;52.36;98873.86;79350;1295;3013118;-66
2023/07/20 02:51:27;;;;;;;6.70;2.00;;;;;;;19.73;52.51;98870.13;79451;1295;3013496;-63
2023/07/20 02:53:55;;;;;;;9.90;2.70;;;;;;;19.70;52.84;98871.73;78057;1301;3049398;-64
2023/07/20 02:56:24;;;;;;;7.00;2.10;;;;;;;19.71;53.03;98871.84;79260;1298;3011785;-63
2023/07/20 02:58:52;;;;;;;4.40;1.90;;;;;;;19.68;53.41;98872.91;79408;1298;3011829;-65
2023/07/20 03:01:20;;;;;;;4.20;2.30;;;;;;;19.68;53.65;98875.34;78131;1298;3051595;-66
2023/07/20 03:03:47;;;;;;;9.20;1.90;;;;;;;19.64;54.09;98873.23;79340;1300;3013572;-66
2023/07/20 03:06:14;;;;;;;7.90;2.20;;;;;;;19.60;54.31;98883.62;79269;1295;3011864;-64
2023/07/20 03:08:47;;;;;;;6.50;2.30;;;;;;;19.60;54.87;98877.59;78232;1301;3049691;-68
2023/07/20 03:11:15;;;;;;;4.60;2.20;;;;;;;19.59;54.97;98876.16;79431;1295;3011547;-64
2023/07/20 03:13:43;;;;;;;5.80;2.40;;;;;;;19.60;55.06;98874.23;78195;1309;3051457;-64
2023/07/20 03:16:11;;;;;;;6.60;2.40;;;;;;;19.61;55.28;98870.07;79391;1295;3013459;-63
2023/07/20 03:18:38;;;;;;;6.20;2.50;;;;;;;19.57;55.42;98867.40;79379;1295;3013004;-63
2023/07/20 03:21:07;;;;;;;6.10;2.40;;;;;;;19.59;55.69;98863.44;78161;1295;3050066;-64
2023/07/20 03:23:34;;;;;;;9.80;2.40;;;;;;;19.56;56.14;98866.64;79341;1295;3013220;-64
2023/07/20 03:26:01;;;;;;;10.00;2.90;;;;;;;19.54;56.51;98868.64;79370;1295;3011375;-64
2023/07/20 03:28:29;;;;;;;7.50;2.50;;;;;;;19.62;56.29;98862.48;78167;1301;3052424;-65
2023/07/20 03:30:56;;;;;;;6.80;2.50;;;;;;;19.62;56.22;98861.91;79371;1295;3013799;-64
2023/07/20 03:33:25;;;;;;;5.10;2.70;;;;;;;19.67;56.45;98860.94;79253;1295;3011892;-67
2023/07/20 03:35:54;;;;;;;6.80;2.80;;;;;;;19.72;56.50;98865.54;78072;1301;3049151;-63
2023/07/20 03:38:22;;;;;;;5.30;2.40;;;;;;;19.77;55.94;98870.20;79425;1300;3013120;-65
2023/07/20 03:40:52;;;;;;;4.80;2.10;;;;;;;19.84;55.54;98872.52;79421;1295;3011506;-64
2023/07/20 03:43:20;;;;;;;5.80;2.20;;;;;;;19.87;55.44;98878.96;78240;1301;3051505;-66
2023/07/20 03:45:50;;;;;;;10.60;2.40;;;;;;;19.93;55.30;98882.95;79482;1295;3013473;-66
2023/07/20 03:48:20;;;;;;;5.50;2.20;;;;;;;20.04;55.26;98887.31;78304;1298;3057171;-64
2023/07/20 03:50:49;;;;;;;4.40;2.20;;;;;;;20.07;55.46;98887.30;79308;1301;3011630;-65
2023/07/20 03:53:18;;;;;;;5.80;2.20;;;;;;;20.09;55.66;98890.64;78908;1295;3011518;-65
2023/07/20 03:55:49;;;;;;;7.20;2.50;;;;;;;20.05;56.00;98888.94;79381;1299;3014781;-64
2023/07/20 03:58:17;;;;;;;9.30;2.50;;;;;;;20.09;56.07;98894.08;78220;1301;3055433;-66
2023/07/20 04:00:45;;;;;;;7.60;2.70;;;;;;;20.18;55.93;98893.59;79566;1300;3013955;-66
2023/07/20 04:03:13;;;;;;;4.80;2.90;;;;;;;20.22;56.19;98890.61;79380;1295;3013230;-65
2023/07/20 04:05:43;;;;;;;17.90;3.40;;;;;;;20.26;56.28;98891.77;78172;1296;3048060;-65
2023/07/20 04:08:10;;;;;;;7.10;3.30;;;;;;;20.32;56.25;98893.33;79421;1295;3011661;-66
2023/07/20 04:10:38;;;;;;;7.30;2.70;;;;;;;20.37;56.29;98890.29;79320;1298;3011471;-68
2023/07/20 04:13:06;;;;;;;8.50;3.10;;;;;;;20.44;56.54;98889.27;78172;1301;3052763;-70
2023/07/20 04:15:33;;;;;;;9.60;2.60;;;;;;;20.48;56.61;98899.73;79461;1295;3011683;-65
2023/07/20 04:18:00;;;;;;;10.50;3.10;;;;;;;20.49;56.51;98901.80;79475;1295;3013694;-68
2023/07/20 04:20:28;;;;;;;9.60;3.20;;;;;;;20.48;56.94;98903.76;78273;1296;3049280;-68
2023/07/20 04:22:55;;;;;;;11.10;3.60;;;;;;;20.54;56.95;98905.25;79414;1296;3013385;-66
2023/07/20 04:25:22;;;;;;;10.80;3.40;;;;;;;20.55;57.31;98905.35;79416;1296;3011916;-65
2023/07/20 04:27:51;;;;;;;13.10;3.40;;;;;;;20.59;57.53;98899.93;78262;1301;3052850;-64
2023/07/20 04:30:22;;;;;;;22.60;3.20;;;;;;;20.57;57.60;98904.88;79429;1295;3013143;-64
2023/07/20 04:32:51;;;;;;;15.10;4.30;;;;;;;20.62;57.84;98901.56;78314;1301;3056082;-66
2023/07/20 04:35:40;;;;;;;15.40;4.10;;;;;;;20.67;57.86;98901.54;79601;1296;3012987;-64
2023/07/20 04:38:10;;;;;;;21.50;4.30;;;;;;;20.71;58.02;98900.76;78316;1301;3049366;-65
2023/07/20 04:40:38;;;;;;;9.60;4.00;;;;;;;20.77;58.03;98900.04;79411;1301;3014972;-66
2023/07/20 04:43:05;;;;;;;12.70;3.50;;;;;;;20.79;58.11;98908.86;79393;1300;3011706;-65
2023/07/20 04:45:36;;;;;;;7.20;3.10;;;;;;;20.83;58.08;98914.33;78231;1301;3051477;-64
2023/07/20 04:48:03;;;;;;;9.90;3.60;;;;;;;20.96;58.10;98914.21;79429;1295;3012914;-65
2023/07/20 04:50:30;;;;;;;9.90;4.00;;;;;;;21.03;57.93;98924.52;79521;1295;3011567;-64
2023/07/20 04:52:59;;;;;;;11.40;3.50;;;;;;;21.09;57.84;98927.27;78142;1298;3050542;-66
2023/07/20 04:55:26;;;;;;;8.30;3.10;;;;;;;21.19;57.92;98917.27;79606;1300;3013604;-67
2023/07/20 04:57:52;;;;;;;5.70;2.90;;;;;;;21.24;57.78;98914.17;79501;1295;3013206;-69
2023/07/20 05:00:21;;;;;;;6.70;2.80;;;;;;;21.35;57.49;98914.75;78237;1296;3026766;-69
2023/07/20 05:02:48;;;;;;;7.10;2.70;;;;;;;21.34;57.59;98912.64;79435;1298;3013738;-71
2023/07/20 05:05:15;;;;;;;11.50;3.40;;;;;;;21.30;57.90;98910.13;79314;1295;3011810;-66
2023/07/20 05:07:43;;;;;;;10.50;2.60;;;;;;;21.29;58.04;98905.05;78228;1298;3049758;-66
2023/07/20 05:10:10;;;;;;;8.80;2.90;;;;;;;21.32;58.22;98900.27;79543;1301;3013568;-63
2023/07/20 05:12:37;;;;;;;8.50;2.90;;;;;;;21.34;58.24;98903.50;79592;1301;3011777;-67
2023/07/20 05:15:05;;;;;;;11.60;3.00;;;;;;;21.40;58.15;98901.36;78214;1301;3051663;-68
2023/07/20 05:17:32;;;;;;;6.90;2.70;;;;;;;21.41;58.38;98895.43;79437;1297;3014474;-66
2023/07/20 05:19:59;;;;;;;9.60;2.80;;;;;;;21.45;57.94;98896.80;79312;1297;3011817;-68
2023/07/20 05:22:27;;;;;;;10.10;3.20;;;;;;;21.54;57.79;98896.14;78296;1301;3049717;-65
2023/07/20 05:24:54;;;;;;;14.40;3.10;;;;;;;21.56;57.84;98900.01;79524;1300;3020585;-67
2023/07/20 05:27:21;;;;;;;7.30;2.90;;;;;;;21.54;57.98;98910.56;79384;1300;3011570;-66
2023/07/20 05:29:49;;;;;;;10.00;3.50;;;;;;;21.63;57.68;98900.29;78152;1301;3051800;-65
2023/07/20 05:32:15;;;;;;;6.20;3.10;;;;;;;21.69;57.40;98896.55;79709;1296;3013380;-67
2023/07/20 05:34:47;;;;;;;11.70;2.70;;;;;;;21.79;57.58;98900.77;78998;1295;3011475;-65
2023/07/20 05:37:14;;;;;;;7.60;3.00;;;;;;;21.80;57.33;98899.80;79386;1304;3012926;-67
2023/07/20 05:39:42;;;;;;;5.60;3.00;;;;;;;21.79;57.52;98900.61;79537;1295;3011639;-69
2023/07/20 05:42:10;;;;;;;6.50;3.10;;;;;;;21.77;57.57;98899.21;78417;1301;3052622;-67
2023/07/20 05:44:39;;;;;;;5.50;2.60;;;;;;;21.85;57.52;98901.90;79532;1298;3013613;-67
2023/07/20 05:47:08;;;;;;;9.50;4.00;;;;;;;21.85;57.71;98902.59;78898;1295;3011753;-67
2023/07/20 05:49:35;;;;;;;7.70;2.80;;;;;;;21.90;57.65;98906.10;79448;1298;3019205;-68
2023/07/20 05:52:02;;;;;;;6.70;3.40;;;;;;;22.00;57.47;98905.18;79361;1298;3011542;-64
2023/07/20 05:54:30;;;;;;;6.20;3.00;;;;;;;22.05;57.50;98907.34;78151;1301;3027225;-65
2023/07/20 05:56:57;;;;;;;11.50;3.50;;;;;;;22.10;57.61;98912.84;79367;1301;3013272;-68
2023/07/20 05:59:24;;;;;;;8.30;3.00;;;;;;;22.13;57.31;98912.72;79511;1295;3011483;-68
2023/07/20 06:01:52;;;;;;;16.30;3.60;;;;;;;22.24;56.81;98908.99;78057;1301;3051956;-65
2023/07/20 06:04:19;;;;;;;7.70;3.00;;;;;;;22.41;56.22;98911.77;79426;1295;3018509;-65
2023/07/20 06:06:46;;;;;;;6.50;3.20;;;;;;;22.52;55.71;98908.44;79392;1299;3013320;-67
2023/07/20 06:09:14;;;;;;;8.10;3.10;;;;;;;22.63;55.40;98902.83;78239;1301;3049237;-67
2023/07/20 06:11:42;;;;;;;12.40;3.30;;;;;;;22.74;55.13;98897.59;79437;1300;3014803;-65
2023/07/20 06:14:09;;;;;;;8.20;3.20;;;;;;;22.83;55.41;98892.58;79396;1295;3013215;-64
2023/07/20 06:16:37;;;;;;;13.50;3.50;;;;;;;22.96;54.70;98888.04;78221;1295;3051377;-63
2023/07/20 06:19:03;;;;;;;9.60;3.10;;;;;;;23.11;54.34;98883.13;79411;1295;3013307;-65
2023/07/20 06:21:30;;;;;;;12.40;3.80;;;;;;;23.22;54.32;98869.46;79351;1300;3011645;-64
2023/07/20 06:23:58;;;;;;;11.30;3.60;;;;;;;23.28;54.35;98867.13;78163;1301;3028818;-66
2023/07/20 06:26:25;;;;;;;13.80;3.80;;;;;;;23.36;54.35;98867.26;79376;1301;3013001;-65
2023/07/20 06:28:52;;;;;;;18.70;4.90;;;;;;;23.46;54.68;98868.71;79393;1300;3011746;-67
2023/07/20 06:31:20;;;;;;;12.80;5.00;;;;;;;23.53;55.14;98865.48;78170;1295;3051838;-66
2023/07/20 06:33:46;;;;;;;11.50;4.80;;;;;;;23.58;55.20;98859.67;79483;1300;3012877;-65
2023/07/20 06:36:15;;;;;;;14.40;4.50;;;;;;;23.59;54.57;98858.44;79479;1299;3013143;-65
2023/07/20 06:38:44;;;;;;;14.20;4.80;;;;;;;23.65;54.49;98864.77;78265;1299;3049383;-66
2023/07/20 06:41:11;;;;;;;18.60;6.30;;;;;;;23.72;54.44;98871.60;79518;1300;3011765;-65
2023/07/20 06:43:42;;;;;;;18.30;7.50;;;;;;;23.81;53.58;98866.27;78991;1299;3011915;-66
2023/07/20 06:46:09;;;;;;;21.30;7.60;;;;;;;23.87;53.61;98874.70;79440;1300;3012872;-63
2023/07/20 06:48:36;;;;;;;20.90;7.60;;;;;;;23.97;53.38;98876.91;79463;1296;3011583;-65
2023/07/20 06:51:04;;;;;;;24.20;7.80;;;;;;;24.01;53.39;98875.63;78295;1295;3026602;-65
2023/07/20 06:53:31;;;;;;;23.80;7.40;;;;;;;24.07;53.76;98875.29;79474;1295;3013348;-66
2023/07/20 06:56:03;;;;;;;18.50;7.40;;;;;;;24.07;53.55;98878.80;78241;1300;3052493;-67
2023/07/20 06:58:30;;;;;;;29.80;8.00;;;;;;;24.02;54.17;98881.73;79355;1300;3013174;-66
2023/07/20 07:00:56;;;;;;;29.80;7.90;;;;;;;23.97;54.94;98880.00;79475;1300;3011770;-67
2023/07/20 07:03:25;;;;;;;26.90;7.50;;;;;;;23.96;55.20;98875.13;78224;1298;3026615;-65
2023/07/20 07:05:55;;;;;;;17.30;6.00;;;;;;;23.93;55.35;98877.17;79461;1295;3013407;-65
2023/07/20 07:08:24;;;;;;;14.30;6.00;;;;;;;23.92;55.17;98877.41;78928;1296;3013665;-63
2023/07/20 07:10:52;;;;;;;14.50;4.70;;;;;;;23.90;55.41;98877.38;79568;1295;3013245;-65
2023/07/20 07:13:19;;;;;;;18.20;4.80;;;;;;;23.88;55.30;98873.70;79455;1299;3011646;-65
2023/07/20 07:15:47;;;;;;;18.10;4.50;;;;;;;23.86;55.33;98873.03;78199;1295;3068203;-65
2023/07/20 07:18:14;;;;;;;11.10;4.50;;;;;;;23.85;55.50;98874.09;79609;1295;3013762;-67
2023/07/20 07:20:40;;;;;;;13.20;4.30;;;;;;;23.80;55.89;98874.27;79430;1300;3012284;-71
2023/07/20 07:23:08;;;;;;;12.10;4.40;;;;;;;23.77;55.77;98877.53;78255;1300;3026325;-66
2023/07/20 07:25:35;;;;;;;8.90;3.80;;;;;;;23.73;56.02;98876.85;79479;1300;3018361;-67
2023/07/20 07:28:01;;;;;;;8.70;4.10;;;;;;;23.72;56.00;98880.34;79472;1301;3011716;-67
2023/07/20 07:30:29;;;;;;;9.40;4.10;;;;;;;23.69;56.81;98885.25;78397;1298;3027724;-68
2023/07/20 07:32:56;;;;;;;14.70;4.10;;;;;;;23.64;57.15;98889.11;79459;1295;3018957;-65
2023/07/20 07:35:22;;;;;;;9.10;3.90;;;;;;;23.63;57.76;98888.42;79424;1295;3012023;-66
2023/07/20 07:37:50;;;;;;;14.70;5.00;;;;;;;23.61;57.63;98888.65;78198;1296;3027809;-65
2023/07/20 07:40:18;;;;;;;20.00;4.30;;;;;;;23.60;57.92;98892.11;79588;1301;3019443;-65
2023/07/20 07:42:44;;;;;;;9.10;4.00;;;;;;;23.60;57.45;98890.38;79429;1301;3011423;-66
2023/07/20 07:45:13;;;;;;;9.30;3.80;;;;;;;23.66;56.97;98893.61;78177;1301;3028887;-68
2023/07/20 07:47:41;;;;;;;11.30;4.40;;;;;;;23.67;57.46;98900.59;79471;1301;3013739;-65
2023/07/20 07:50:09;;;;;;;7.20;3.60;;;;;;;23.66;57.49;98900.66;79465;1295;3011679;-66
2023/07/20 07:52:38;;;;;;;9.60;4.00;;;;;;;23.62;58.01;98897.29;78278;1301;3052438;-65
2023/07/20 07:55:05;;;;;;;6.30;3.80;;;;;;;23.59;58.05;98898.74;79413;1301;3021052;-66
2023/07/20 07:57:32;;;;;;;33.70;12.10;;;;;;;23.50;58.59;98894.16;79460;1301;3012128;-65
2023/07/20 08:00:00;;;;;;;23.60;11.50;;;;;;;23.45;59.93;98893.86;78290;1301;3069775;-67
2023/07/20 08:02:27;;;;;;;25.50;11.10;;;;;;;23.35;60.55;98899.73;79478;1300;3013175;-66
2023/07/20 08:04:54;;;;;;;37.50;16.40;;;;;;;23.32;60.28;98905.34;79442;1301;3011660;-67
2023/07/20 08:07:22;;;;;;;21.30;7.80;;;;;;;23.30;59.67;98902.29;78302;1301;3026359;-66
2023/07/20 08:09:52;;;;;;;12.80;5.80;;;;;;;23.28;59.41;98901.27;79631;1300;3012919;-67
2023/07/20 08:12:21;;;;;;;9.40;4.70;;;;;;;23.34;59.15;98907.69;78992;1299;3013577;-71
2023/07/20 08:14:48;;;;;;;12.90;4.40;;;;;;;23.37;59.68;98909.69;79418;1301;3013854;-68
2023/07/20 08:17:22;;;;;;;7.70;4.00;;;;;;;23.35;59.68;98913.33;79462;1295;3011600;-68
2023/07/20 08:19:51;;;;;;;7.80;4.60;;;;;;;23.36;59.39;98914.01;78196;1300;3056515;-70
2023/07/20 08:22:17;;;;;;;9.30;4.10;;;;;;;23.39;60.04;98912.81;79455;1295;3013517;-70
2023/07/20 08:24:44;;;;;;;8.40;4.10;;;;;;;23.42;60.33;98906.16;79462;1295;3011946;-72
2023/07/20 08:27:12;;;;;;;8.10;4.20;;;;;;;23.44;60.87;98906.64;78209;1301;3027583;-70
2023/07/20 08:29:39;;;;;;;6.40;3.70;;;;;;;23.45;61.33;98906.48;79862;1296;3014716;-68
2023/07/20 08:32:06;;;;;;;14.80;4.70;;;;;;;23.45;61.66;98907.96;79421;1300;3013290;-70
2023/07/20 08:34:37;;;;;;;12.50;4.20;;;;;;;23.41;61.79;98904.63;77208;1295;3056048;-70
2023/07/20 08:37:04;;;;;;;11.70;4.30;;;;;;;23.38;62.17;98904.48;79548;1296;3021263;-68
2023/07/20 08:39:34;;;;;;;9.40;4.30;;;;;;;23.39;62.24;98904.77;79586;1296;3011677;-66
2023/07/20 08:42:06;;;;;;;9.90;4.30;;;;;;;23.40;61.82;98914.98;78294;1301;3052080;-64
2023/07/20 08:44:33;;;;;;;10.30;5.40;;;;;;;23.42;62.72;98917.95;79404;1298;3013688;-66
2023/07/20 08:47:05;;;;;;;15.30;6.20;;;;;;;23.40;62.92;98921.20;78239;1300;3067878;-68
2023/07/20 08:49:32;;;;;;;10.90;6.60;;;;;;;23.44;62.66;98928.86;79629;1298;3011902;-67
2023/07/20 08:52:00;;;;;;;14.20;6.80;;;;;;;23.40;62.77;98936.23;78155;1297;3025926;-67
2023/07/20 08:54:29;;;;;;;19.80;5.90;;;;;;;23.32;62.63;98941.58;79510;1295;3013441;-64
2023/07/20 08:56:56;;;;;;;11.30;5.00;;;;;;;23.24;62.59;98940.05;79528;1299;3013244;-63
2023/07/20 08:59:24;;;;;;;9.00;4.80;;;;;;;23.07;63.01;98941.84;78322;1302;3054329;-64
2023/07/20 09:01:54;;;;;;;8.00;5.30;;;;;;;22.96;63.54;98948.70;79445;1298;3013248;-67
2023/07/20 09:04:20;;;;;;;13.20;5.10;;;;;;;22.93;64.84;98953.36;79250;1296;3011768;-66
2023/07/20 09:06:49;;;;;;;10.80;5.30;;;;;;;22.92;64.31;98963.61;78332;1299;3056914;-65
2023/07/20 09:09:16;;;;;;;9.90;5.00;;;;;;;22.75;65.73;98968.56;79694;1297;3014625;-65
2023/07/20 09:11:43;;;;;;;8.50;5.40;;;;;;;22.71;65.94;98970.95;79360;1298;3011872;-65
2023/07/20 09:14:11;;;;;;;12.80;5.60;;;;;;;22.72;65.46;98969.14;78438;1298;3051227;-63
2023/07/20 09:16:51;;;;;;;9.60;4.70;;;;;;;22.64;66.23;98967.34;79575;1301;3013550;-64
2023/07/20 09:19:22;;;;;;;12.10;5.00;;;;;;;22.69;65.69;98970.16;78276;1301;3052313;-66
2023/07/20 09:21:50;;;;;;;9.40;5.30;;;;;;;22.69;65.50;98970.63;79409;1295;3013569;-64
2023/07/20 09:24:18;;;;;;;9.10;4.70;;;;;;;22.62;66.64;98969.00;79357;1298;3011554;-65
2023/07/20 09:26:50;;;;;;;14.70;5.40;;;;;;;22.59;66.69;98967.96;77950;1300;3051068;-62
2023/07/20 09:29:20;;;;;;;13.20;5.60;;;;;;;22.47;67.61;98966.84;79214;1300;3013882;-64
2023/07/20 09:32:04;;;;;;;7.30;4.60;;;;;;;22.38;66.98;98973.14;78036;1301;3053303;-64
2023/07/20 09:34:33;;;;;;;9.20;5.10;;;;;;;22.22;67.29;98972.39;78129;1298;3069183;-64
2023/07/20 09:37:00;;;;;;;10.20;3.70;;;;;;;22.19;68.70;98969.61;79360;1301;3012991;-62
2023/07/20 09:39:28;;;;;;;9.50;4.10;;;;;;;22.81;68.09;98960.03;79292;1295;3011611;-64
2023/07/20 09:42:00;;;;;;;7.60;4.70;;;;;;;23.27;66.62;98960.00;78128;1303;3053188;-64
2023/07/20 09:44:28;;;;;;;8.00;4.90;;;;;;;23.35;65.60;98957.78;79307;1295;3011802;-63
2023/07/20 09:46:55;;;;;;;10.40;4.70;;;;;;;23.18;66.57;98952.14;78217;1300;3026544;-65
2023/07/20 09:49:22;;;;;;;10.20;4.70;;;;;;;23.07;65.55;98954.59;79324;1301;3013047;-62
2023/07/20 09:51:50;;;;;;;11.60;4.70;;;;;;;22.90;66.27;98949.45;79258;1300;3011517;-63
2023/07/20 09:54:18;;;;;;;6.80;4.60;;;;;;;22.66;67.10;98950.68;78029;1302;3056260;-64
2023/07/20 09:56:44;;;;;;;9.20;4.70;;;;;;;22.53;68.46;98951.36;79222;1296;3012987;-63
2023/07/20 09:59:11;;;;;;;9.60;5.00;;;;;;;22.42;68.70;98946.55;79557;1295;3011541;-66
2023/07/20 10:01:39;;;;;;;9.10;5.30;;;;;;;22.34;68.72;98945.68;78160;1301;3026149;-63
2023/07/20 10:04:06;;;;;;;8.30;5.10;;;;;;;22.33;68.46;98947.25;79493;1298;3013433;-65
2023/07/20 10:06:32;;;;;;;7.90;3.80;;;;;;;22.25;69.49;98947.15;79389;1302;3011592;-63
2023/07/20 10:09:02;;;;;;;10.00;3.90;;;;;;;22.89;68.68;98942.80;78252;1295;3025854;-65
2023/07/20 10:11:30;;;;;;;9.10;4.60;;;;;;;23.33;67.14;98933.52;79287;1296;3013039;-69
2023/07/20 10:14:05;;;;;;;9.40;5.40;;;;;;;23.46;67.21;98932.64;78404;1295;3053719;-62
2023/07/20 10:16:34;;;;;;;12.00;6.80;;;;;;;23.43;66.72;98930.34;79438;1300;3012882;-65
2023/07/20 10:19:07;;;;;;;13.60;7.00;;;;;;;23.26;67.28;98927.46;78437;1301;3051958;-63
2023/07/20 10:21:35;;;;;;;9.40;7.30;;;;;;;23.23;67.75;98928.16;79539;1298;3011816;-63
2023/07/20 10:24:04;;;;;;;9.50;6.20;;;;;;;23.30;66.70;98922.60;78129;1301;3069225;-63
2023/07/20 10:26:31;;;;;;;12.90;6.50;;;;;;;23.32;65.78;98921.19;79372;1299;3013973;-63
2023/07/20 10:28:58;;;;;;;9.60;6.30;;;;;;;23.21;66.63;98920.16;79437;1295;3012723;-65
2023/07/20 10:31:28;;;;;;;9.10;5.80;;;;;;;23.21;66.51;98920.72;78173;1299;3054133;-63
2023/07/20 10:33:58;;;;;;;9.70;5.50;;;;;;;23.29;67.12;98914.14;79337;1296;3013548;-64
2023/07/20 10:36:29;;;;;;;9.80;6.10;;;;;;;23.30;67.60;98910.32;77934;1304;3051464;-64
2023/07/20 10:38:57;;;;;;;8.10;5.20;;;;;;;23.14;65.88;98910.66;79370;1295;3013432;-64
2023/07/20 10:41:35;;;;;;;9.10;5.60;;;;;;;22.98;65.85;98909.54;78057;1301;3069135;-64
2023/07/20 10:44:04;;;;;;;8.80;5.30;;;;;;;23.05;65.93;98904.02;78280;1301;3050921;-64
2023/07/20 10:46:40;;;;;;;8.00;5.50;;;;;;;23.11;65.23;98901.10;79359;1295;3014099;-62
2023/07/20 10:49:09;;;;;;;11.80;5.50;;;;;;;23.06;65.34;98894.61;78023;1295;3053263;-62
2023/07/20 10:51:42;;;;;;;8.40;5.00;;;;;;;23.02;66.28;98891.74;79477;1301;3014787;-62
2023/07/20 10:54:30;;;;;;;8.60;5.50;;;;;;;22.95;66.59;98887.59;78105;1301;3053836;-65
2023/07/20 10:57:28;;;;;;;10.40;4.90;;;;;;;22.89;67.64;98881.53;78057;1301;3068092;-62
2023/07/20 11:00:11;;;;;;;8.90;5.40;;;;;;;22.89;66.49;98872.59;78122;1301;3052290;-63
2023/07/20 11:02:44;;;;;;;8.10;5.50;;;;;;;22.92;69.19;98866.30;78261;1301;3058008;-64
2023/07/20 11:05:36;;;;;;;9.10;4.10;;;;;;;23.03;70.60;98862.55;79166;1301;3013412;-62
2023/07/20 11:08:06;;;;;;;10.30;4.80;;;;;;;23.87;67.64;98859.11;78042;1301;3053844;-62
2023/07/20 11:10:33;;;;;;;6.60;5.00;;;;;;;24.35;65.82;98858.84;79360;1301;3012859;-65
2023/07/20 11:13:25;;;;;;;11.40;4.90;;;;;;;24.43;64.75;98860.30;79316;1301;3013163;-66
2023/07/20 11:15:56;;;;;;;8.70;5.10;;;;;;;24.43;63.42;98859.09;78059;1301;3069552;-65
2023/07/20 11:18:26;;;;;;;9.90;5.50;;;;;;;24.41;62.95;98853.55;79242;1300;3013595;-64
2023/07/20 11:20:54;;;;;;;12.70;5.80;;;;;;;24.53;63.02;98858.33;77951;1301;3056837;-65